Stillwater Regional Airport
KSWO : now visible

Aeroporto :











RITROVATECI SU...

 
LOGIN :

Iscrizione | Disclaimer

   EN    FR    IT 

 









Sommario :    VFR   VFR Marginale   IFR   IFR Intensivo   IFR Molto Intensivo
Visibilità : 
Base nubi : 
>= 8 km
>= 3000ft
5 / 8 km
1000 / 3000 ft
1500m / 5 km
500 / 1000 ft
800 / 1500m
200 / 500 ft
< 800m
< 200 ft
Simboli :   Temporali  Nebbia  Neve Forte  Precipitazioni Forti  Vento > 20 kt






- Altitudine del aeroporto : 1000 ft


KSWO - Stillwater Regional

ULTIMO METAR :
  • 040253Z AUTO 04007KT 10SM BKN047 OVC060 04/00 A3018 RMK AO2 SLP223 T00440000 53012

METARs OBSOLETI :
  • 040153Z AUTO 03007KT 10SM BKN042 OVC060 04/00 A3014 RMK AO2 SLP212 T00440000
  • 040053Z AUTO 04007KT 10SM OVC043 04/M01 A3014 RMK AO2 SLP211 T00391006

TAF N/A



MetMap, La meteo Aeronautica in un colpo d'occhio ! - Copyright ORBIFLY Dicembre 2007 - Disclaimer

ORBIFLY MET'MAP TEAM :

Programmazione e sviluppo : Alexandra Zaïnal
Concezione : Baudouin d'Aumeries
Aiuto per la programmazione : Marc-Olivier Méhu
Supporto tecnico e logistico : Manuel Goepfert
Aiuto per la traduzione : Arnaldo La Scala

Contatto : metmap@orbifly.com




FONTI E CREDITI :

   NOAA       Earth
Advisory